Time;durP1;ratioP1;P1;durP2;ratioP2;P2;SDS_P1;SDS_P2;PMS_P1;PMS_P2;Temp;Humidity;BMP_temperature;BMP_pressure;BME280_temperature;BME280_humidity;BME280_pressure;Samples;Min_cycle;Max_cycle;Signal;HPM_P1;HPM_P2
2021/03/01 00:03:08;;;;;;;26.08;15.30;;;;;;;;;;8269061;28;20416;-66
2021/03/01 00:07:13;;;;;;;30.27;14.77;;;;;;;;;;8320874;28;20070;-67
2021/03/01 00:11:18;;;;;;;25.40;14.27;;;;;;;;;;8320569;28;20476;-66
2021/03/01 00:15:24;;;;;;;27.00;14.10;;;;;;;;;;8322902;28;20382;-66
2021/03/01 00:19:29;;;;;;;29.50;15.13;;;;;;;;;;8319745;28;20063;-67
2021/03/01 00:23:33;;;;;;;26.63;14.98;;;;;;;;;;8322212;28;20474;-66
2021/03/01 00:27:39;;;;;;;29.55;15.45;;;;;;;;;;8320467;28;20394;-67
2021/03/01 00:31:44;;;;;;;29.65;13.90;;;;;;;;;;8320454;28;20397;-66
2021/03/01 00:35:53;;;;;;;26.35;14.07;;;;;;;;;;8322006;28;20078;-66
2021/03/01 00:39:58;;;;;;;27.50;14.57;;;;;;;;;;8251282;28;20471;-67
2021/03/01 00:44:03;;;;;;;27.88;13.77;;;;;;;;;;8253893;28;20378;-66
2021/03/01 00:48:08;;;;;;;27.77;13.30;;;;;;;;;;8257078;28;20067;-67
2021/03/01 00:52:13;;;;;;;26.02;13.45;;;;;;;;;;8256292;28;20356;-67
2021/03/01 00:56:19;;;;;;;27.52;13.45;;;;;;;;;;8256227;28;20466;-66
2021/03/01 01:00:24;;;;;;;28.92;14.38;;;;;;;;;;8239961;28;20494;-66
2021/03/01 01:04:36;;;;;;;29.15;14.27;;;;;;;;;;8253121;28;20462;-66
2021/03/01 01:08:43;;;;;;;27.20;14.40;;;;;;;;;;8239135;28;20060;-66
2021/03/01 01:12:48;;;;;;;29.45;14.25;;;;;;;;;;8255950;28;20471;-66
2021/03/01 01:16:53;;;;;;;28.08;14.10;;;;;;;;;;8293024;28;20378;-67
2021/03/01 01:20:58;;;;;;;25.23;13.85;;;;;;;;;;8326509;28;20369;-66
2021/03/01 01:25:05;;;;;;;29.02;13.38;;;;;;;;;;8326377;28;20358;-67
2021/03/01 01:29:10;;;;;;;30.13;15.38;;;;;;;;;;8327873;28;20082;-66
2021/03/01 01:33:14;;;;;;;30.85;14.88;;;;;;;;;;8325133;28;20098;-66
2021/03/01 01:37:19;;;;;;;32.15;15.40;;;;;;;;;;8325247;28;20071;-66
2021/03/01 01:41:24;;;;;;;27.38;14.63;;;;;;;;;;8326842;28;20370;-66
2021/03/01 01:45:29;;;;;;;27.10;14.20;;;;;;;;;;8324828;28;20394;-67
2021/03/01 01:49:34;;;;;;;28.17;12.85;;;;;;;;;;8324280;28;20359;-66
2021/03/01 01:53:39;;;;;;;24.63;13.63;;;;;;;;;;8326650;28;20070;-66
2021/03/01 01:57:44;;;;;;;27.83;13.73;;;;;;;;;;8324424;28;20470;-66
2021/03/01 02:01:49;;;;;;;25.40;14.43;;;;;;;;;;8325190;28;20343;-66
2021/03/01 02:06:03;;;;;;;32.67;14.32;;;;;;;;;;8322640;28;20378;-66
2021/03/01 02:10:21;;;;;;;26.80;13.88;;;;;;;;;;8291067;28;20365;-67
2021/03/01 02:15:16;;;;;;;27.63;14.63;;;;;;;;;;8307565;28;20052;-66
2021/03/01 02:19:21;;;;;;;28.00;14.02;;;;;;;;;;8308731;28;20356;-66
2021/03/01 02:23:26;;;;;;;29.25;14.07;;;;;;;;;;8321778;28;20480;-67
2021/03/01 02:27:37;;;;;;;29.73;14.07;;;;;;;;;;8306192;28;20381;-66
2021/03/01 02:31:45;;;;;;;29.67;13.63;;;;;;;;;;8322981;28;20385;-66
2021/03/01 02:35:59;;;;;;;26.17;14.98;;;;;;;;;;8305992;28;20409;-67
2021/03/01 02:40:06;;;;;;;31.13;14.60;;;;;;;;;;8306799;28;20464;-67
2021/03/01 02:44:11;;;;;;;32.13;15.65;;;;;;;;;;8323342;28;20066;-66
2021/03/01 02:48:16;;;;;;;30.15;15.30;;;;;;;;;;8323180;28;20458;-66
2021/03/01 02:52:22;;;;;;;25.38;14.60;;;;;;;;;;8321200;28;20477;-66
2021/03/01 02:56:28;;;;;;;34.30;15.23;;;;;;;;;;8306727;28;20449;-66
2021/03/01 03:00:32;;;;;;;33.28;15.23;;;;;;;;;;8288540;28;20451;-66
2021/03/01 03:04:39;;;;;;;33.75;14.98;;;;;;;;;;8305311;28;20458;-68
2021/03/01 03:08:44;;;;;;;28.30;15.48;;;;;;;;;;8323686;28;20373;-66
2021/03/01 03:12:49;;;;;;;32.08;15.57;;;;;;;;;;8321999;28;20462;-66
2021/03/01 03:16:58;;;;;;;38.25;15.30;;;;;;;;;;8304828;28;20052;-66
2021/03/01 03:21:02;;;;;;;29.95;14.88;;;;;;;;;;8303293;28;20470;-66
2021/03/01 03:25:10;;;;;;;31.02;15.73;;;;;;;;;;8289234;28;20075;-66
2021/03/01 03:29:14;;;;;;;36.08;15.90;;;;;;;;;;8289415;28;20493;-66
2021/03/01 03:33:19;;;;;;;29.13;15.70;;;;;;;;;;8287592;28;20489;-66
2021/03/01 03:37:43;;;;;;;33.60;15.88;;;;;;;;;;8290220;28;20379;-66
2021/03/01 03:41:51;;;;;;;37.50;16.90;;;;;;;;;;8287993;28;20375;-66
2021/03/01 03:46:01;;;;;;;35.80;16.13;;;;;;;;;;8271644;28;20386;-67
2021/03/01 03:50:06;;;;;;;35.65;15.88;;;;;;;;;;8287286;28;20327;-66
2021/03/01 03:54:22;;;;;;;38.50;16.73;;;;;;;;;;8286591;28;20360;-66
2021/03/01 03:58:31;;;;;;;35.78;17.65;;;;;;;;;;8289204;28;20366;-66
2021/03/01 04:02:38;;;;;;;33.35;15.60;;;;;;;;;;8286626;28;20466;-66
2021/03/01 04:06:44;;;;;;;37.28;15.90;;;;;;;;;;8288026;28;20359;-66
2021/03/01 04:10:53;;;;;;;29.92;15.25;;;;;;;;;;8288256;28;20463;-66
2021/03/01 04:14:58;;;;;;;31.70;14.43;;;;;;;;;;8289908;28;20459;-67
2021/03/01 04:19:07;;;;;;;34.53;16.73;;;;;;;;;;8297363;28;20485;-66
2021/03/01 04:23:15;;;;;;;36.17;16.65;;;;;;;;;;8327392;28;20070;-67
2021/03/01 04:27:21;;;;;;;34.10;15.65;;;;;;;;;;8311087;28;20385;-66
2021/03/01 04:31:28;;;;;;;38.28;16.45;;;;;;;;;;8309261;28;20378;-66
2021/03/01 04:35:34;;;;;;;30.50;15.18;;;;;;;;;;8308708;28;20462;-66
2021/03/01 04:39:40;;;;;;;33.50;15.27;;;;;;;;;;8326935;28;20408;-66
2021/03/01 04:43:46;;;;;;;32.10;15.13;;;;;;;;;;8329184;28;20371;-66
2021/03/01 04:47:51;;;;;;;37.22;16.05;;;;;;;;;;8309088;28;20416;-66
2021/03/01 04:51:57;;;;;;;32.67;15.35;;;;;;;;;;8309565;28;20074;-66
2021/03/01 04:56:07;;;;;;;33.42;16.33;;;;;;;;;;8309398;28;20374;-66
2021/03/01 05:00:13;;;;;;;28.75;14.82;;;;;;;;;;8307690;28;20497;-66
2021/03/01 05:04:19;;;;;;;41.85;18.55;;;;;;;;;;8326697;28;20463;-66
2021/03/01 05:08:22;;;;;;;45.33;21.73;;;;;;;;;;8325248;28;20513;-66
2021/03/01 05:12:27;;;;;;;41.30;18.25;;;;;;;;;;8328082;28;20523;-66
2021/03/01 05:16:31;;;;;;;33.15;15.77;;;;;;;;;;8325879;28;20370;-66
2021/03/01 05:20:36;;;;;;;26.55;15.23;;;;;;;;;;8326036;28;20343;-67
2021/03/01 05:24:41;;;;;;;30.45;16.20;;;;;;;;;;8325888;28;20409;-66
2021/03/01 05:28:46;;;;;;;34.20;14.88;;;;;;;;;;8324486;28;20070;-66
2021/03/01 05:32:51;;;;;;;37.70;14.57;;;;;;;;;;8324484;28;20375;-67
2021/03/01 05:36:56;;;;;;;30.13;15.10;;;;;;;;;;8325358;28;20466;-66
2021/03/01 05:41:03;;;;;;;38.05;16.58;;;;;;;;;;8324817;28;20377;-66
2021/03/01 05:45:12;;;;;;;44.05;16.25;;;;;;;;;;8324211;28;20471;-66
2021/03/01 05:49:16;;;;;;;37.38;16.38;;;;;;;;;;8324407;28;20363;-66
2021/03/01 05:53:26;;;;;;;35.20;16.63;;;;;;;;;;8324123;28;20417;-66
2021/03/01 05:57:32;;;;;;;31.55;16.20;;;;;;;;;;8325222;28;20089;-66
2021/03/01 06:01:38;;;;;;;32.40;17.23;;;;;;;;;;8306877;28;21468;-67
2021/03/01 06:05:46;;;;;;;37.40;16.67;;;;;;;;;;8322866;28;20476;-66
2021/03/01 06:09:51;;;;;;;37.67;17.08;;;;;;;;;;8323949;28;20486;-66
2021/03/01 06:13:56;;;;;;;38.67;17.48;;;;;;;;;;8324316;28;20377;-66
2021/03/01 06:18:11;;;;;;;52.97;22.15;;;;;;;;;;8324760;28;20427;-66
2021/03/01 06:22:17;;;;;;;72.68;27.55;;;;;;;;;;8293438;28;20371;-66
2021/03/01 06:26:34;;;;;;;99.75;33.25;;;;;;;;;;8304710;28;20451;-67
2021/03/01 06:30:40;;;;;;;52.50;22.45;;;;;;;;;;8291187;28;20471;-66
2021/03/01 06:34:45;;;;;;;52.15;20.50;;;;;;;;;;8292799;28;20467;-66
2021/03/01 06:38:49;;;;;;;109.40;33.72;;;;;;;;;;8290733;28;20409;-68
2021/03/01 06:43:12;;;;;;;104.28;34.35;;;;;;;;;;8288769;28;20467;-66
2021/03/01 06:47:21;;;;;;;85.72;29.02;;;;;;;;;;8290823;28;20482;-66
2021/03/01 06:51:34;;;;;;;44.45;19.60;;;;;;;;;;8289896;28;20331;-66
2021/03/01 06:56:16;;;;;;;;;;;;;;;;;;8305436;28;20447;-66
2021/03/01 07:00:28;;;;;;;45.17;18.05;;;;;;;;;;8291551;28;20327;-71
2021/03/01 07:04:58;;;;;;;;;;;;;;;;;;8291167;28;20500;-67
2021/03/01 07:09:02;;;;;;;34.95;16.13;;;;;;;;;;8288700;28;20357;-66
2021/03/01 07:13:07;;;;;;;42.47;18.25;;;;;;;;;;8290911;28;20409;-66
2021/03/01 07:17:11;;;;;;;35.13;15.57;;;;;;;;;;8292663;28;20409;-66
2021/03/01 07:21:16;;;;;;;31.77;14.20;;;;;;;;;;8304498;28;20379;-67
2021/03/01 07:25:22;;;;;;;39.70;15.48;;;;;;;;;;8292296;28;20056;-66
2021/03/01 07:29:32;;;;;;;32.47;16.17;;;;;;;;;;8289877;28;20055;-66
2021/03/01 07:33:38;;;;;;;31.42;16.55;;;;;;;;;;8291934;28;20501;-66
2021/03/01 07:37:43;;;;;;;42.75;17.40;;;;;;;;;;8289931;28;20497;-66
2021/03/01 07:41:49;;;;;;;34.25;15.55;;;;;;;;;;8287755;28;20386;-68
2021/03/01 07:45:55;;;;;;;34.83;17.48;;;;;;;;;;8272338;28;20049;-67
2021/03/01 07:49:59;;;;;;;87.47;39.47;;;;;;;;;;8290005;28;20397;-66
2021/03/01 07:54:04;;;;;;;59.28;28.77;;;;;;;;;;8295323;28;20467;-66
2021/03/01 07:58:09;;;;;;;58.13;26.98;;;;;;;;;;8296016;28;20459;-66
2021/03/01 08:02:31;;;;;;;33.45;17.23;;;;;;;;;;8296827;28;20328;-66
2021/03/01 08:06:58;;;;;;;60.00;29.13;;;;;;;;;;8296100;28;20446;-66
2021/03/01 08:11:05;;;;;;;46.30;25.23;;;;;;;;;;8295785;28;20390;-66
2021/03/01 08:15:10;;;;;;;43.47;20.38;;;;;;;;;;8294504;28;20462;-67
2021/03/01 08:19:42;;;;;;;42.72;20.45;;;;;;;;;;8301788;28;20481;-67
2021/03/01 08:23:47;;;;;;;47.65;19.40;;;;;;;;;;8328514;28;20465;-67
2021/03/01 08:27:52;;;;;;;65.55;25.67;;;;;;;;;;8328840;28;20056;-67
2021/03/01 08:32:13;;;;;;;46.75;20.30;;;;;;;;;;8328056;28;20482;-68
2021/03/01 08:36:17;;;;;;;32.03;15.20;;;;;;;;;;8327413;28;20401;-67
2021/03/01 08:40:24;;;;;;;31.55;14.65;;;;;;;;;;8328399;28;20394;-67
2021/03/01 08:44:29;;;;;;;36.20;16.45;;;;;;;;;;8330958;28;20393;-67
2021/03/01 08:48:40;;;;;;;33.08;15.80;;;;;;;;;;8327485;28;20478;-66
2021/03/01 08:52:50;;;;;;;52.03;21.80;;;;;;;;;;8328378;28;20378;-66
2021/03/01 08:57:09;;;;;;;63.65;22.85;;;;;;;;;;8328192;28;20562;-67
2021/03/01 09:01:14;;;;;;;33.70;15.68;;;;;;;;;;8326854;28;20382;-67
2021/03/01 09:05:19;;;;;;;30.95;13.60;;;;;;;;;;8308476;28;20386;-67
2021/03/01 09:09:23;;;;;;;38.95;16.20;;;;;;;;;;8326957;28;20373;-67
2021/03/01 09:13:29;;;;;;;37.47;17.17;;;;;;;;;;8326613;28;20373;-67
2021/03/01 09:17:34;;;;;;;52.85;20.20;;;;;;;;;;8325092;28;20484;-67
2021/03/01 09:21:42;;;;;;;51.95;18.80;;;;;;;;;;8325534;28;20056;-67
2021/03/01 09:25:46;;;;;;;46.92;16.65;;;;;;;;;;8326162;28;20052;-66
2021/03/01 09:29:50;;;;;;;30.30;14.15;;;;;;;;;;8308243;28;20051;-67
2021/03/01 09:33:55;;;;;;;45.33;15.98;;;;;;;;;;8293469;28;20366;-67
2021/03/01 09:38:04;;;;;;;42.17;15.88;;;;;;;;;;8327249;28;20399;-67
2021/03/01 09:42:10;;;;;;;58.15;19.00;;;;;;;;;;8308353;28;20378;-66
2021/03/01 09:46:17;;;;;;;28.08;13.93;;;;;;;;;;8325395;28;20470;-67
2021/03/01 09:50:24;;;;;;;30.88;15.15;;;;;;;;;;8323494;28;20485;-67
2021/03/01 09:54:29;;;;;;;34.40;16.08;;;;;;;;;;8307216;28;20070;-67
2021/03/01 09:58:40;;;;;;;36.75;15.80;;;;;;;;;;8306552;28;20040;-66
2021/03/01 10:03:01;;;;;;;25.02;12.18;;;;;;;;;;8324825;28;20054;-67
2021/03/01 10:07:22;;;;;;;29.92;13.32;;;;;;;;;;8325167;28;20378;-67
2021/03/01 10:11:26;;;;;;;26.08;13.23;;;;;;;;;;8324872;28;20378;-67
2021/03/01 10:15:43;;;;;;;39.50;13.75;;;;;;;;;;8324381;28;20462;-67
2021/03/01 10:19:51;;;;;;;37.92;15.43;;;;;;;;;;8323344;28;20397;-67
2021/03/01 10:24:06;;;;;;;39.22;14.77;;;;;;;;;;8322828;28;20473;-66
2021/03/01 10:28:26;;;;;;;31.13;15.35;;;;;;;;;;8304884;28;20369;-66
2021/03/01 10:32:30;;;;;;;29.88;14.68;;;;;;;;;;8325876;28;20496;-67
2021/03/01 10:36:52;;;;;;;29.42;12.02;;;;;;;;;;8322925;28;20417;-66
2021/03/01 10:40:57;;;;;;;22.23;10.00;;;;;;;;;;8325390;28;20074;-67
2021/03/01 10:45:01;;;;;;;26.33;12.20;;;;;;;;;;8304260;28;20040;-67
2021/03/01 10:49:23;;;;;;;31.40;13.98;;;;;;;;;;8323335;28;20075;-67
2021/03/01 10:53:27;;;;;;;36.95;15.52;;;;;;;;;;8323114;28;20465;-66
2021/03/01 10:57:32;;;;;;;31.52;13.23;;;;;;;;;;8322692;28;20377;-67
2021/03/01 11:01:45;;;;;;;108.50;28.90;;;;;;;;;;8322739;28;20381;-67
2021/03/01 11:05:50;;;;;;;62.38;21.23;;;;;;;;;;8323118;28;20052;-67
2021/03/01 11:09:55;;;;;;;61.92;21.10;;;;;;;;;;8304913;28;20048;-67
2021/03/01 11:14:00;;;;;;;20.55;10.43;;;;;;;;;;8322918;28;20374;-67
2021/03/01 11:18:05;;;;;;;17.08;9.75;;;;;;;;;;8321555;28;20409;-67
2021/03/01 11:22:09;;;;;;;24.02;12.20;;;;;;;;;;8322264;28;20504;-67
2021/03/01 11:26:14;;;;;;;31.33;14.98;;;;;;;;;;8321835;28;20056;-67
2021/03/01 11:30:19;;;;;;;29.40;13.15;;;;;;;;;;8323704;28;20486;-66
2021/03/01 11:34:24;;;;;;;27.83;13.48;;;;;;;;;;8323087;28;20451;-67
2021/03/01 11:38:29;;;;;;;38.70;14.25;;;;;;;;;;8305526;28;20466;-67
2021/03/01 11:42:33;;;;;;;22.33;13.02;;;;;;;;;;8321367;28;20504;-67
2021/03/01 11:46:39;;;;;;;28.08;11.48;;;;;;;;;;8323926;28;20417;-67
2021/03/01 11:50:50;;;;;;;22.65;12.93;;;;;;;;;;8322084;28;20458;-67
2021/03/01 11:54:56;;;;;;;30.00;15.27;;;;;;;;;;8304558;28;20048;-67
2021/03/01 11:59:03;;;;;;;40.45;21.58;;;;;;;;;;8322895;28;20082;-67
2021/03/01 12:03:10;;;;;;;22.42;11.38;;;;;;;;;;8321437;28;20377;-67
2021/03/01 12:07:14;;;;;;;17.13;9.30;;;;;;;;;;8320726;28;20374;-67
2021/03/01 12:11:19;;;;;;;22.33;10.88;;;;;;;;;;8323765;28;20461;-67
2021/03/01 12:15:24;;;;;;;17.30;9.75;;;;;;;;;;8324452;28;20355;-67
2021/03/01 12:19:29;;;;;;;21.15;10.82;;;;;;;;;;8324237;28;20064;-67
2021/03/01 12:23:33;;;;;;;22.40;11.43;;;;;;;;;;8322881;28;20048;-67
2021/03/01 12:27:39;;;;;;;19.73;9.70;;;;;;;;;;8322511;28;20505;-66
2021/03/01 12:31:50;;;;;;;23.92;11.65;;;;;;;;;;8323244;28;20377;-66
2021/03/01 12:35:55;;;;;;;36.85;15.60;;;;;;;;;;8323682;28;20470;-66
2021/03/01 12:39:59;;;;;;;21.63;12.38;;;;;;;;;;8326052;28;20462;-67
2021/03/01 12:44:04;;;;;;;32.88;15.82;;;;;;;;;;8331174;28;20408;-68
2021/03/01 12:48:09;;;;;;;28.45;13.80;;;;;;;;;;8327682;28;20044;-66
2021/03/01 12:52:14;;;;;;;32.95;17.83;;;;;;;;;;8330807;28;20078;-67
2021/03/01 12:56:18;;;;;;;27.95;13.32;;;;;;;;;;8329402;28;20074;-67
2021/03/01 13:00:23;;;;;;;30.40;15.57;;;;;;;;;;8329055;28;20067;-67
2021/03/01 13:04:29;;;;;;;29.38;15.15;;;;;;;;;;8328742;28;20366;-67
2021/03/01 13:08:34;;;;;;;27.08;13.77;;;;;;;;;;8327023;28;20359;-67
2021/03/01 13:12:39;;;;;;;20.02;10.38;;;;;;;;;;8327630;28;20474;-66
2021/03/01 13:16:44;;;;;;;25.10;10.88;;;;;;;;;;8325789;28;20492;-70
2021/03/01 13:20:50;;;;;;;38.63;15.27;;;;;;;;;;8325945;28;20476;-66
2021/03/01 13:24:55;;;;;;;20.33;10.88;;;;;;;;;;8328756;28;20470;-67
2021/03/01 13:29:02;;;;;;;23.70;11.20;;;;;;;;;;8325935;28;20482;-67
2021/03/01 13:33:06;;;;;;;26.60;12.50;;;;;;;;;;8311574;28;20066;-67
2021/03/01 13:37:11;;;;;;;25.13;13.45;;;;;;;;;;8310599;28;20402;-67
2021/03/01 13:41:18;;;;;;;26.05;12.05;;;;;;;;;;8328824;28;20387;-67
2021/03/01 13:45:22;;;;;;;24.00;12.90;;;;;;;;;;8326565;28;20493;-66
2021/03/01 13:49:27;;;;;;;22.58;11.75;;;;;;;;;;8327702;28;20359;-66
2021/03/01 13:53:33;;;;;;;21.88;12.43;;;;;;;;;;8326680;28;20408;-66
2021/03/01 13:57:38;;;;;;;21.52;12.50;;;;;;;;;;8324759;28;20359;-68
2021/03/01 14:01:43;;;;;;;28.10;12.60;;;;;;;;;;8326957;28;20412;-67
2021/03/01 14:05:47;;;;;;;22.45;10.85;;;;;;;;;;8327360;28;20493;-66
2021/03/01 14:09:52;;;;;;;36.97;15.30;;;;;;;;;;8327326;28;20488;-67
2021/03/01 14:13:56;;;;;;;30.38;15.68;;;;;;;;;;8326622;28;20466;-66
2021/03/01 14:18:01;;;;;;;45.38;21.00;;;;;;;;;;8326493;28;20404;-67
2021/03/01 14:22:05;;;;;;;30.02;17.33;;;;;;;;;;8306432;28;20458;-66
2021/03/01 14:26:10;;;;;;;19.50;11.77;;;;;;;;;;8326386;28;20497;-66
2021/03/01 14:30:15;;;;;;;55.60;28.08;;;;;;;;;;8324814;28;20076;-67
2021/03/01 14:34:23;;;;;;;35.85;18.50;;;;;;;;;;8325766;28;20078;-67
2021/03/01 14:38:28;;;;;;;36.15;20.27;;;;;;;;;;8328179;28;20347;-67
2021/03/01 14:42:32;;;;;;;34.17;15.10;;;;;;;;;;8328439;28;20454;-67
2021/03/01 14:46:37;;;;;;;30.70;18.23;;;;;;;;;;8306329;28;20359;-67
2021/03/01 14:50:41;;;;;;;38.80;21.67;;;;;;;;;;8305887;28;20066;-66
2021/03/01 14:54:47;;;;;;;98.45;48.20;;;;;;;;;;8324413;28;20378;-66
2021/03/01 14:58:51;;;;;;;25.35;13.57;;;;;;;;;;8325288;28;20484;-67
2021/03/01 15:02:57;;;;;;;25.55;14.63;;;;;;;;;;8325267;28;20369;-67
2021/03/01 15:07:17;;;;;;;24.48;14.93;;;;;;;;;;8322983;28;20496;-67
2021/03/01 15:11:22;;;;;;;25.45;14.48;;;;;;;;;;8289954;28;20459;-66
2021/03/01 15:15:27;;;;;;;42.90;20.40;;;;;;;;;;8323403;28;20481;-66
2021/03/01 15:19:32;;;;;;;125.70;40.85;;;;;;;;;;8305102;28;20378;-67
2021/03/01 15:23:37;;;;;;;34.78;17.05;;;;;;;;;;8305712;28;20478;-67
2021/03/01 15:27:44;;;;;;;36.63;19.23;;;;;;;;;;8325227;28;20391;-67
2021/03/01 15:31:49;;;;;;;61.22;25.17;;;;;;;;;;8323355;28;20496;-67
2021/03/01 15:35:53;;;;;;;46.97;21.92;;;;;;;;;;8323510;28;20390;-67
2021/03/01 15:39:58;;;;;;;30.10;16.73;;;;;;;;;;8323161;28;20374;-66
2021/03/01 15:44:03;;;;;;;30.98;14.60;;;;;;;;;;8306160;28;20070;-67
2021/03/01 15:48:09;;;;;;;35.78;18.67;;;;;;;;;;8323402;28;20493;-67
2021/03/01 15:52:16;;;;;;;40.63;20.73;;;;;;;;;;8323815;28;20482;-66
2021/03/01 15:56:20;;;;;;;95.53;39.22;;;;;;;;;;8304317;28;20379;-67
2021/03/01 16:00:25;;;;;;;55.50;26.80;;;;;;;;;;8322853;28;20478;-66
2021/03/01 16:04:31;;;;;;;70.75;38.58;;;;;;;;;;8303723;28;20386;-66
2021/03/01 16:08:36;;;;;;;72.45;33.83;;;;;;;;;;8304345;28;20501;-67
2021/03/01 16:12:41;;;;;;;32.22;18.45;;;;;;;;;;8325829;28;20482;-69
2021/03/01 16:16:44;;;;;;;30.40;16.73;;;;;;;;;;8328576;28;20485;-66
2021/03/01 16:20:49;;;;;;;45.30;22.98;;;;;;;;;;8327779;28;20504;-67
2021/03/01 16:24:54;;;;;;;48.17;25.92;;;;;;;;;;8310263;28;20366;-66
2021/03/01 16:28:58;;;;;;;58.30;25.45;;;;;;;;;;8311018;28;20413;-66
2021/03/01 16:33:04;;;;;;;65.45;34.72;;;;;;;;;;8329023;28;20627;-66
2021/03/01 16:37:09;;;;;;;97.85;39.20;;;;;;;;;;8330272;28;20069;-66
2021/03/01 16:41:18;;;;;;;148.20;50.13;;;;;;;;;;8327185;28;20500;-66
2021/03/01 16:45:22;;;;;;;65.70;30.02;;;;;;;;;;8327319;28;20472;-66
2021/03/01 16:49:29;;;;;;;94.85;33.38;;;;;;;;;;8308919;28;20485;-66
2021/03/01 16:53:36;;;;;;;44.33;20.23;;;;;;;;;;8327228;28;20469;-66
2021/03/01 16:57:47;;;;;;;45.20;20.80;;;;;;;;;;8326779;28;20397;-66
2021/03/01 17:01:52;;;;;;;57.35;26.33;;;;;;;;;;8326568;28;20056;-66
2021/03/01 17:06:02;;;;;;;53.50;25.27;;;;;;;;;;8308644;28;20048;-66
2021/03/01 17:10:18;;;;;;;47.15;22.63;;;;;;;;;;8325589;28;20466;-66
2021/03/01 17:14:56;;;;;;;37.17;19.92;;;;;;;;;;8326445;28;20485;-66
2021/03/01 17:19:02;;;;;;;61.97;28.67;;;;;;;;;;8310368;28;20382;-66
2021/03/01 17:23:08;;;;;;;81.85;35.25;;;;;;;;;;8324245;28;20398;-66
2021/03/01 17:27:16;;;;;;;51.25;24.58;;;;;;;;;;8307627;28;20385;-66
2021/03/01 17:31:22;;;;;;;53.40;25.75;;;;;;;;;;8308999;28;20088;-66
2021/03/01 17:35:26;;;;;;;65.32;27.92;;;;;;;;;;8326355;28;20044;-66
2021/03/01 17:39:34;;;;;;;57.00;25.42;;;;;;;;;;8324842;28;20397;-67
2021/03/01 17:43:39;;;;;;;62.13;29.45;;;;;;;;;;8325336;28;20435;-66
2021/03/01 17:48:25;;;;;;;52.80;24.30;;;;;;;;;;8325779;28;20441;-66
2021/03/01 17:52:49;;;;;;;58.47;23.63;;;;;;;;;;8230869;28;20382;-67
2021/03/01 17:56:53;;;;;;;59.88;26.88;;;;;;;;;;8324681;28;20075;-66
2021/03/01 18:01:04;;;;;;;76.60;34.28;;;;;;;;;;8324054;28;20401;-66
2021/03/01 18:05:13;;;;;;;84.65;34.33;;;;;;;;;;8324534;28;20052;-66
2021/03/01 18:09:37;;;;;;;217.00;83.00;;;;;;;;;;8325284;28;20455;-66
2021/03/01 18:13:42;;;;;;;213.48;82.40;;;;;;;;;;8325056;28;20500;-66
2021/03/01 18:17:47;;;;;;;300.27;118.15;;;;;;;;;;8306076;28;20040;-66
2021/03/01 18:21:54;;;;;;;52.17;25.98;;;;;;;;;;8323517;28;20071;-66
2021/03/01 18:26:00;;;;;;;140.93;58.15;;;;;;;;;;8323584;28;20073;-66
2021/03/01 18:30:11;;;;;;;288.40;125.28;;;;;;;;;;8324217;28;20413;-66
2021/03/01 18:34:35;;;;;;;222.90;106.95;;;;;;;;;;8323808;28;20474;-66
2021/03/01 18:38:58;;;;;;;79.47;35.47;;;;;;;;;;8325451;28;20048;-66
2021/03/01 18:43:09;;;;;;;99.45;43.25;;;;;;;;;;8305741;28;20074;-66
2021/03/01 18:47:16;;;;;;;95.90;42.40;;;;;;;;;;8323101;28;20048;-66
2021/03/01 18:51:21;;;;;;;92.78;40.22;;;;;;;;;;8305514;28;20462;-67
2021/03/01 18:55:28;;;;;;;147.05;50.85;;;;;;;;;;8305574;28;20359;-66
2021/03/01 18:59:32;;;;;;;94.65;34.40;;;;;;;;;;8324955;28;20450;-66
2021/03/01 19:03:37;;;;;;;57.92;24.05;;;;;;;;;;8322401;28;20485;-66
2021/03/01 19:07:41;;;;;;;58.10;25.15;;;;;;;;;;8324059;28;20378;-66
2021/03/01 19:11:46;;;;;;;725.13;266.70;;;;;;;;;;8304547;28;20047;-66
2021/03/01 19:15:50;;;;;;;720.15;279.67;;;;;;;;;;8323246;28;20377;-66
2021/03/01 19:19:55;;;;;;;93.65;36.95;;;;;;;;;;8321233;28;20408;-66
2021/03/01 19:23:59;;;;;;;63.95;27.70;;;;;;;;;;8323481;28;20465;-66
2021/03/01 19:28:04;;;;;;;65.88;29.35;;;;;;;;;;8321554;28;20044;-67
2021/03/01 19:32:09;;;;;;;521.80;114.57;;;;;;;;;;8322143;28;20374;-66
2021/03/01 19:36:14;;;;;;;342.38;74.65;;;;;;;;;;8322166;28;20405;-66
2021/03/01 19:40:18;;;;;;;143.57;47.00;;;;;;;;;;8323557;28;20351;-66
2021/03/01 19:44:23;;;;;;;235.43;93.60;;;;;;;;;;8322458;28;20078;-67
2021/03/01 19:48:27;;;;;;;844.35;334.70;;;;;;;;;;8325276;28;20637;-66
2021/03/01 19:52:34;;;;;;;80.28;33.17;;;;;;;;;;8330378;28;20370;-66
2021/03/01 19:56:41;;;;;;;206.85;53.40;;;;;;;;;;8313448;28;20474;-66
2021/03/01 20:00:45;;;;;;;65.10;26.63;;;;;;;;;;8329623;28;20348;-66
2021/03/01 20:04:52;;;;;;;123.47;39.70;;;;;;;;;;8327909;28;20382;-66
2021/03/01 20:08:56;;;;;;;219.45;72.72;;;;;;;;;;8328726;28;20052;-66
2021/03/01 20:13:01;;;;;;;134.25;46.55;;;;;;;;;;8327408;28;20075;-65
2021/03/01 20:17:06;;;;;;;151.10;44.20;;;;;;;;;;8327311;28;20396;-66
2021/03/01 20:21:12;;;;;;;175.68;56.80;;;;;;;;;;8327343;28;20351;-66
2021/03/01 20:25:16;;;;;;;178.88;57.08;;;;;;;;;;8329675;28;20469;-66
2021/03/01 20:29:22;;;;;;;89.22;39.83;;;;;;;;;;8328630;28;20472;-66
2021/03/01 20:33:27;;;;;;;115.93;46.80;;;;;;;;;;8327321;28;20497;-66
2021/03/01 20:37:32;;;;;;;66.53;27.52;;;;;;;;;;8328180;28;20470;-66
2021/03/01 20:41:36;;;;;;;67.82;32.67;;;;;;;;;;8327054;28;20450;-67
2021/03/01 20:45:41;;;;;;;64.07;29.45;;;;;;;;;;8329941;28;20478;-66
2021/03/01 20:49:47;;;;;;;65.22;29.98;;;;;;;;;;8327830;28;20470;-66
2021/03/01 20:53:51;;;;;;;66.38;30.88;;;;;;;;;;8326147;28;20052;-66
2021/03/01 20:57:56;;;;;;;77.22;35.42;;;;;;;;;;8327817;28;20355;-67
2021/03/01 21:02:19;;;;;;;78.78;35.80;;;;;;;;;;8326229;28;20359;-67
2021/03/01 21:06:24;;;;;;;70.35;32.92;;;;;;;;;;8327352;28;20498;-67
2021/03/01 21:10:31;;;;;;;78.95;36.45;;;;;;;;;;8326263;28;20377;-67
2021/03/01 21:14:37;;;;;;;89.38;38.20;;;;;;;;;;8292147;28;20454;-67
2021/03/01 21:18:43;;;;;;;79.57;36.33;;;;;;;;;;8325650;28;20462;-66
2021/03/01 21:23:11;;;;;;;75.00;34.45;;;;;;;;;;8309483;28;20466;-66
2021/03/01 21:27:18;;;;;;;64.55;32.20;;;;;;;;;;8325967;28;20404;-67
2021/03/01 21:31:23;;;;;;;73.38;32.83;;;;;;;;;;8325858;28;20401;-66
2021/03/01 21:35:29;;;;;;;70.78;34.45;;;;;;;;;;8325144;28;20488;-67
2021/03/01 21:39:38;;;;;;;65.43;32.33;;;;;;;;;;8328009;28;20521;-68
2021/03/01 21:43:44;;;;;;;69.85;33.20;;;;;;;;;;8309866;28;20458;-68
2021/03/01 21:48:27;;;;;;;78.55;35.65;;;;;;;;;;8309506;28;20348;-67
2021/03/01 21:52:34;;;;;;;71.32;33.00;;;;;;;;;;8229572;28;20455;-68
2021/03/01 21:56:42;;;;;;;78.40;34.00;;;;;;;;;;8325178;28;20374;-68
2021/03/01 22:00:48;;;;;;;95.30;40.92;;;;;;;;;;8324018;28;20469;-67
2021/03/01 22:05:15;;;;;;;81.10;37.22;;;;;;;;;;8307188;28;20462;-68
2021/03/01 22:09:30;;;;;;;88.07;36.55;;;;;;;;;;8323012;28;20477;-68
2021/03/01 22:13:36;;;;;;;78.07;35.35;;;;;;;;;;8323856;28;20040;-67
2021/03/01 22:17:43;;;;;;;94.90;40.80;;;;;;;;;;8306792;28;20386;-67
2021/03/01 22:21:50;;;;;;;95.20;38.85;;;;;;;;;;8324255;28;20378;-68
2021/03/01 22:25:55;;;;;;;129.27;46.45;;;;;;;;;;8324021;28;20378;-67
2021/03/01 22:30:05;;;;;;;82.80;35.72;;;;;;;;;;8324637;28;20382;-67
2021/03/01 22:34:17;;;;;;;95.10;38.25;;;;;;;;;;8324267;28;20048;-66
2021/03/01 22:38:26;;;;;;;96.10;39.28;;;;;;;;;;8324261;28;20063;-67
2021/03/01 22:42:32;;;;;;;105.57;42.28;;;;;;;;;;8320563;28;20389;-66
2021/03/01 22:46:40;;;;;;;90.72;37.95;;;;;;;;;;8304190;28;20092;-67
2021/03/01 22:50:49;;;;;;;;;;;;;;;;;;8324836;28;20136;-65
2021/03/01 22:54:56;;;;;;;97.63;38.50;;;;;;;;;;8323209;28;20265;-67
2021/03/01 22:59:02;;;;;;;65.65;29.30;;;;;;;;;;8305878;28;20377;-66
2021/03/01 23:03:08;;;;;;;69.70;28.80;;;;;;;;;;8323449;28;20478;-66
2021/03/01 23:07:18;;;;;;;71.60;30.20;;;;;;;;;;8323226;28;20482;-66
2021/03/01 23:11:23;;;;;;;61.92;28.52;;;;;;;;;;8304800;28;20504;-66
2021/03/01 23:15:27;;;;;;;56.75;28.55;;;;;;;;;;8323299;28;20378;-66
2021/03/01 23:19:31;;;;;;;63.65;28.85;;;;;;;;;;8321803;28;20478;-66
2021/03/01 23:23:36;;;;;;;63.45;28.80;;;;;;;;;;8324299;28;20036;-66
2021/03/01 23:27:41;;;;;;;68.10;31.38;;;;;;;;;;8322324;28;20478;-66
2021/03/01 23:31:46;;;;;;;58.95;28.90;;;;;;;;;;8321952;28;20481;-66
2021/03/01 23:35:51;;;;;;;64.90;29.77;;;;;;;;;;8304221;28;20386;-66
2021/03/01 23:40:00;;;;;;;95.70;38.58;;;;;;;;;;8321392;28;20374;-66
2021/03/01 23:44:07;;;;;;;74.32;32.05;;;;;;;;;;8289621;28;20355;-66
2021/03/01 23:48:15;;;;;;;63.30;29.52;;;;;;;;;;8321961;28;20421;-66
2021/03/01 23:52:21;;;;;;;59.53;26.20;;;;;;;;;;8304246;28;20477;-66
2021/03/01 23:56:25;;;;;;;66.43;28.60;;;;;;;;;;8321799;28;20460;-66
